Key Field
KMEI : now visible

Airfield :











YOU CAN JOIN US ON...

 
LOGIN :

Register | Disclaimer

   EN    FR    IT 

 









Legend :    VFR   Marginal VFR   IFR   Intensive IFR   Very Intensive IFR
Visi :
Ceiling :
>= 8 km
>= 3000ft
5 to 8 km
1000 to 3000 ft
1500m to 5 km
500 to 1000 ft
800 to 1500m
200 to 500 ft
< 800m
< 200 ft
Symbols :   Thunderstorms  Fog  Heavy snow  Heavy precipitations  Wind > 20 kt






- Airport Elevation : 297 ft
- IATA code : MEI


KMEI - Key Field

CURRENT METAR :
  • 081958Z 15007KT 10SM OVC026 20/13 A3005 RMK AO2 SLP175 I1000 T02000133

EXPIRED METARs :
  • 081942Z 17009KT 10SM BKN026 OVC037 20/13 A3005 RMK AO2 I1000 T02000133
  • 081907Z 12007KT 10SM SCT024 BKN043 20/13 A3007 RMK AO2 I1000 T02000133
  • 081834Z 19008KT 10SM BKN024 BKN029 BKN035 19/13 A3009 RMK AO2 I1000 T01890128
  • 081758Z 16005KT 10SM BKN020 BKN025 BKN037 19/13 A3011 RMK AO2 SLP193 I1000 I6/// T01940128 10194 20100 58028
  • 081750Z 14007KT 10SM BKN021 BKN028 OVC055 19/12 A3011 RMK AO2 I1000 T01940122
  • 081720Z 16004KT 10SM FEW023 BKN035 OVC044 19/12 A3013 RMK AO2 I1000 T01890117

TAF KMEI
Valid from the 08 at 18:00 until the 09 at 18:00 UTC


081731Z 0818/0918 16009KT P6SM BKN035
FM090200 17006KT P6SM OVC008
FM090800 19004KT P6SM OVC025
FM091200 19006KT P6SM OVC050
FM091500 20013KT P6SM OVC025



MET'MAP, your aeronautical weather chart ! - Copyright ORBIFLY December 2007 - Disclaimer

ORBIFLY MET'MAP TEAM :

Programming & Development : Alexandra Zaïnal
Concept & original design : Baudouin d'Aumeries
Assistance for programming : Marc-Olivier Méhu
Technical & hardware support : Manuel Goepfert

Contact : metmap@orbifly.com




SOURCES & CREDITS :

   NOAA       Earth
Advisory